sensor_id;sensor_type;location;lat;lon;timestamp;pressure;altitude;pressure_sealevel;temperature;humidity
82986;BME280;72786;53.546;9.910;2024-01-16T00:00:56;99639.56;;;0.95;92.81
82986;BME280;72786;53.546;9.910;2024-01-16T00:03:22;99655.16;;;1.07;91.30
82986;BME280;72786;53.546;9.910;2024-01-16T00:05:49;99667.84;;;1.00;91.58
82986;BME280;72786;53.546;9.910;2024-01-16T00:08:15;99658.88;;;0.95;91.83
82986;BME280;72786;53.546;9.910;2024-01-16T00:10:42;99669.97;;;1.04;91.86
82986;BME280;72786;53.546;9.910;2024-01-16T00:13:08;99669.97;;;1.04;91.59
82986;BME280;72786;53.546;9.910;2024-01-16T00:15:35;99674.69;;;1.01;91.49
82986;BME280;72786;53.546;9.910;2024-01-16T00:18:01;99614.78;;;0.62;91.02
82986;BME280;72786;53.546;9.910;2024-01-16T00:20:28;99674.47;;;0.84;90.44
82986;BME280;72786;53.546;9.910;2024-01-16T00:22:54;99693.44;;;0.80;91.60
82986;BME280;72786;53.546;9.910;2024-01-16T00:25:21;99703.38;;;0.79;92.53
82986;BME280;72786;53.546;9.910;2024-01-16T00:27:47;99671.44;;;0.57;91.36
82986;BME280;72786;53.546;9.910;2024-01-16T00:30:14;99692.63;;;0.73;92.29
82986;BME280;72786;53.546;9.910;2024-01-16T00:32:40;99672.69;;;0.61;92.10
82986;BME280;72786;53.546;9.910;2024-01-16T00:35:08;99705.56;;;0.76;92.67
82986;BME280;72786;53.546;9.910;2024-01-16T00:37:38;99712.19;;;0.82;91.73
82986;BME280;72786;53.546;9.910;2024-01-16T00:40:05;99666.59;;;0.52;91.11
82986;BME280;72786;53.546;9.910;2024-01-16T00:42:32;99677.94;;;0.55;90.85
82986;BME280;72786;53.546;9.910;2024-01-16T00:44:58;99713.84;;;0.75;91.67
82986;BME280;72786;53.546;9.910;2024-01-16T00:47:25;99699.84;;;0.70;91.86
82986;BME280;72786;53.546;9.910;2024-01-16T00:49:51;99693.97;;;0.63;91.29
82986;BME280;72786;53.546;9.910;2024-01-16T00:52:18;99724.16;;;0.76;91.81
82986;BME280;72786;53.546;9.910;2024-01-16T00:54:45;99723.97;;;0.75;91.97
82986;BME280;72786;53.546;9.910;2024-01-16T00:57:12;99716.91;;;0.79;91.72
82986;BME280;72786;53.546;9.910;2024-01-16T00:59:38;99725.53;;;0.81;91.78
82986;BME280;72786;53.546;9.910;2024-01-16T01:02:04;99736.53;;;0.82;91.69
82986;BME280;72786;53.546;9.910;2024-01-16T01:04:32;99739.81;;;0.81;91.82
82986;BME280;72786;53.546;9.910;2024-01-16T01:06:59;99709.78;;;0.69;91.74
82986;BME280;72786;53.546;9.910;2024-01-16T01:09:25;99707.81;;;0.66;91.12
82986;BME280;72786;53.546;9.910;2024-01-16T01:11:52;99743.84;;;0.72;90.43
82986;BME280;72786;53.546;9.910;2024-01-16T01:14:18;99747.44;;;0.74;91.35
82986;BME280;72786;53.546;9.910;2024-01-16T01:16:45;99739.34;;;0.70;90.54
82986;BME280;72786;53.546;9.910;2024-01-16T01:19:11;99746.97;;;0.63;91.81
82986;BME280;72786;53.546;9.910;2024-01-16T01:21:39;99724.06;;;0.61;91.58
82986;BME280;72786;53.546;9.910;2024-01-16T01:24:05;99736.31;;;0.65;90.87
82986;BME280;72786;53.546;9.910;2024-01-16T01:26:32;99744.91;;;0.74;91.68
82986;BME280;72786;53.546;9.910;2024-01-16T01:28:58;99745.63;;;0.73;90.93
82986;BME280;72786;53.546;9.910;2024-01-16T01:31:25;99736.63;;;0.68;91.39
82986;BME280;72786;53.546;9.910;2024-01-16T01:33:51;99713.31;;;0.48;90.44
82986;BME280;72786;53.546;9.910;2024-01-16T01:36:18;99750.69;;;0.73;91.53
82986;BME280;72786;53.546;9.910;2024-01-16T01:38:44;99748.88;;;0.72;90.79
82986;BME280;72786;53.546;9.910;2024-01-16T01:41:11;99749.66;;;0.64;89.60
82986;BME280;72786;53.546;9.910;2024-01-16T01:43:40;99727.06;;;0.43;89.78
82986;BME280;72786;53.546;9.910;2024-01-16T01:46:11;99757.59;;;0.60;89.63
82986;BME280;72786;53.546;9.910;2024-01-16T01:48:43;99755.16;;;0.46;89.65
82986;BME280;72786;53.546;9.910;2024-01-16T01:51:12;99769.19;;;0.58;91.25
82986;BME280;72786;53.546;9.910;2024-01-16T01:53:39;99736.03;;;0.48;90.99
82986;BME280;72786;53.546;9.910;2024-01-16T01:56:08;99784.28;;;0.65;90.31
82986;BME280;72786;53.546;9.910;2024-01-16T01:58:37;99782.84;;;0.67;90.90
82986;BME280;72786;53.546;9.910;2024-01-16T02:01:07;99790.94;;;0.65;90.72
82986;BME280;72786;53.546;9.910;2024-01-16T02:03:39;99787.50;;;0.71;90.68
82986;BME280;72786;53.546;9.910;2024-01-16T02:06:07;99789.81;;;0.76;90.91
82986;BME280;72786;53.546;9.910;2024-01-16T02:08:33;99774.13;;;0.72;90.77
82986;BME280;72786;53.546;9.910;2024-01-16T02:11:00;99780.22;;;0.81;91.33
82986;BME280;72786;53.546;9.910;2024-01-16T02:13:27;99779.09;;;0.86;91.19
82986;BME280;72786;53.546;9.910;2024-01-16T02:15:54;99793.53;;;0.87;91.70
82986;BME280;72786;53.546;9.910;2024-01-16T02:18:20;99796.38;;;0.90;91.69
82986;BME280;72786;53.546;9.910;2024-01-16T02:20:47;99799.31;;;0.86;91.80
82986;BME280;72786;53.546;9.910;2024-01-16T02:23:14;99797.72;;;0.79;91.30
82986;BME280;72786;53.546;9.910;2024-01-16T02:25:42;99772.53;;;0.66;91.70
82986;BME280;72786;53.546;9.910;2024-01-16T02:28:08;99812.28;;;0.82;91.45
82986;BME280;72786;53.546;9.910;2024-01-16T02:30:35;99766.25;;;0.62;91.90
82986;BME280;72786;53.546;9.910;2024-01-16T02:33:01;99797.16;;;0.82;91.93
82986;BME280;72786;53.546;9.910;2024-01-16T02:35:30;99771.09;;;0.68;92.01
82986;BME280;72786;53.546;9.910;2024-01-16T02:37:56;99770.63;;;0.56;92.35
82986;BME280;72786;53.546;9.910;2024-01-16T02:40:23;99794.19;;;0.71;92.69
82986;BME280;72786;53.546;9.910;2024-01-16T02:42:49;99771.34;;;0.55;92.57
82986;BME280;72786;53.546;9.910;2024-01-16T02:45:17;99802.63;;;0.71;92.36
82986;BME280;72786;53.546;9.910;2024-01-16T02:47:43;99805.00;;;0.70;92.37
82986;BME280;72786;53.546;9.910;2024-01-16T02:50:10;99798.00;;;0.60;92.29
82986;BME280;72786;53.546;9.910;2024-01-16T02:52:36;99797.28;;;0.61;92.35
82986;BME280;72786;53.546;9.910;2024-01-16T02:55:03;99803.25;;;0.62;92.35
82986;BME280;72786;53.546;9.910;2024-01-16T02:57:31;99791.00;;;0.51;92.52
82986;BME280;72786;53.546;9.910;2024-01-16T02:59:57;99764.25;;;0.37;92.59
82986;BME280;72786;53.546;9.910;2024-01-16T03:02:23;99800.22;;;0.50;93.07
82986;BME280;72786;53.546;9.910;2024-01-16T03:04:50;99781.53;;;0.34;92.36
82986;BME280;72786;53.546;9.910;2024-01-16T03:07:16;99768.28;;;0.21;92.60
82986;BME280;72786;53.546;9.910;2024-01-16T03:09:43;99794.00;;;0.33;93.05
82986;BME280;72786;53.546;9.910;2024-01-16T03:12:09;99769.94;;;0.14;93.26
82986;BME280;72786;53.546;9.910;2024-01-16T03:14:36;99772.47;;;0.14;93.03
82986;BME280;72786;53.546;9.910;2024-01-16T03:17:03;99774.09;;;0.06;93.37
82986;BME280;72786;53.546;9.910;2024-01-16T03:19:29;99803.97;;;0.24;93.37
82986;BME280;72786;53.546;9.910;2024-01-16T03:21:56;99803.19;;;0.25;93.91
82986;BME280;72786;53.546;9.910;2024-01-16T03:24:23;99795.31;;;0.22;93.68
82986;BME280;72786;53.546;9.910;2024-01-16T03:26:49;99771.56;;;0.06;93.43
82986;BME280;72786;53.546;9.910;2024-01-16T03:29:16;99804.28;;;0.27;93.46
82986;BME280;72786;53.546;9.910;2024-01-16T03:31:42;99744.28;;;-0.11;93.28
82986;BME280;72786;53.546;9.910;2024-01-16T03:34:09;99803.22;;;0.18;93.45
82986;BME280;72786;53.546;9.910;2024-01-16T03:36:37;99803.63;;;0.14;93.62
82986;BME280;72786;53.546;9.910;2024-01-16T03:39:04;99810.09;;;0.12;93.52
82986;BME280;72786;53.546;9.910;2024-01-16T03:41:31;99803.47;;;0.13;93.93
82986;BME280;72786;53.546;9.910;2024-01-16T03:43:58;99815.16;;;0.12;93.48
82986;BME280;72786;53.546;9.910;2024-01-16T03:46:24;99813.00;;;0.15;93.88
82986;BME280;72786;53.546;9.910;2024-01-16T03:48:51;99818.38;;;0.18;93.82
82986;BME280;72786;53.546;9.910;2024-01-16T03:51:17;99812.28;;;0.16;93.64
82986;BME280;72786;53.546;9.910;2024-01-16T03:53:46;99807.59;;;0.12;93.71
82986;BME280;72786;53.546;9.910;2024-01-16T03:56:12;99804.91;;;0.11;93.63
82986;BME280;72786;53.546;9.910;2024-01-16T03:58:40;99807.25;;;0.09;93.59
82986;BME280;72786;53.546;9.910;2024-01-16T04:01:08;99776.69;;;-0.14;93.59
82986;BME280;72786;53.546;9.910;2024-01-16T04:03:35;99809.78;;;0.02;94.13
82986;BME280;72786;53.546;9.910;2024-01-16T04:06:01;99810.13;;;0.05;94.05
82986;BME280;72786;53.546;9.910;2024-01-16T04:08:28;99816.94;;;0.13;93.78
82986;BME280;72786;53.546;9.910;2024-01-16T04:10:54;99814.09;;;0.10;93.27
82986;BME280;72786;53.546;9.910;2024-01-16T04:13:21;99812.28;;;0.09;93.85
82986;BME280;72786;53.546;9.910;2024-01-16T04:15:47;99817.50;;;0.11;93.79
82986;BME280;72786;53.546;9.910;2024-01-16T04:18:14;99786.00;;;0.00;94.08
82986;BME280;72786;53.546;9.910;2024-01-16T04:20:41;99808.28;;;0.18;94.00
82986;BME280;72786;53.546;9.910;2024-01-16T04:23:08;99823.38;;;0.25;94.17
82986;BME280;72786;53.546;9.910;2024-01-16T04:25:34;99750.56;;;-0.08;93.83
82986;BME280;72786;53.546;9.910;2024-01-16T04:28:00;99815.31;;;0.28;94.19
82986;BME280;72786;53.546;9.910;2024-01-16T04:30:28;99814.75;;;0.30;94.28
82986;BME280;72786;53.546;9.910;2024-01-16T04:32:55;99823.72;;;0.35;94.64
82986;BME280;72786;53.546;9.910;2024-01-16T04:35:22;99825.84;;;0.39;94.61
82986;BME280;72786;53.546;9.910;2024-01-16T04:37:48;99809.28;;;0.41;93.97
82986;BME280;72786;53.546;9.910;2024-01-16T04:40:15;99805.47;;;0.45;93.85
82986;BME280;72786;53.546;9.910;2024-01-16T04:42:41;99806.72;;;0.48;93.37
82986;BME280;72786;53.546;9.910;2024-01-16T04:45:09;99802.03;;;0.51;93.59
82986;BME280;72786;53.546;9.910;2024-01-16T04:47:35;99764.28;;;0.30;93.17
82986;BME280;72786;53.546;9.910;2024-01-16T04:50:02;99801.34;;;0.45;92.87
82986;BME280;72786;53.546;9.910;2024-01-16T04:52:29;99793.25;;;0.41;93.47
82986;BME280;72786;53.546;9.910;2024-01-16T04:54:56;99790.53;;;0.39;93.49
82986;BME280;72786;53.546;9.910;2024-01-16T04:57:22;99790.53;;;0.39;93.96
82986;BME280;72786;53.546;9.910;2024-01-16T04:59:49;99808.94;;;0.38;93.89
82986;BME280;72786;53.546;9.910;2024-01-16T05:02:16;99800.97;;;0.42;93.96
82986;BME280;72786;53.546;9.910;2024-01-16T05:04:43;99795.75;;;0.48;94.26
82986;BME280;72786;53.546;9.910;2024-01-16T05:07:10;99758.13;;;0.35;93.58
82986;BME280;72786;53.546;9.910;2024-01-16T05:09:36;99792.25;;;0.54;93.83
82986;BME280;72786;53.546;9.910;2024-01-16T05:12:03;99803.84;;;0.52;93.53
82986;BME280;72786;53.546;9.910;2024-01-16T05:14:29;99808.31;;;0.55;93.81
82986;BME280;72786;53.546;9.910;2024-01-16T05:16:56;99775.38;;;0.39;94.02
82986;BME280;72786;53.546;9.910;2024-01-16T05:19:23;99809.22;;;0.55;93.86
82986;BME280;72786;53.546;9.910;2024-01-16T05:21:49;99806.53;;;0.54;93.98
82986;BME280;72786;53.546;9.910;2024-01-16T05:24:15;99815.66;;;0.60;94.17
82986;BME280;72786;53.546;9.910;2024-01-16T05:26:42;99794.97;;;0.56;94.19
82986;BME280;72786;53.546;9.910;2024-01-16T05:29:08;99771.25;;;0.40;94.24
82986;BME280;72786;53.546;9.910;2024-01-16T05:31:44;99810.25;;;0.64;93.89
82986;BME280;72786;53.546;9.910;2024-01-16T05:34:10;99807.56;;;0.63;93.84
82986;BME280;72786;53.546;9.910;2024-01-16T05:36:37;99780.22;;;0.45;93.94
82986;BME280;72786;53.546;9.910;2024-01-16T05:39:04;99793.13;;;0.62;94.54
82986;BME280;72786;53.546;9.910;2024-01-16T05:41:34;99814.91;;;0.68;94.00
82986;BME280;72786;53.546;9.910;2024-01-16T05:44:01;99797.22;;;0.68;94.13
82986;BME280;72786;53.546;9.910;2024-01-16T05:46:32;99790.69;;;0.77;94.34
82986;BME280;72786;53.546;9.910;2024-01-16T05:48:58;99798.28;;;0.77;94.09
82986;BME280;72786;53.546;9.910;2024-01-16T05:51:27;99793.22;;;0.77;94.17
82986;BME280;72786;53.546;9.910;2024-01-16T05:53:55;99798.28;;;0.77;94.74
82986;BME280;72786;53.546;9.910;2024-01-16T05:56:22;99788.84;;;0.83;94.52
82986;BME280;72786;53.546;9.910;2024-01-16T05:58:48;99788.53;;;0.80;94.21
82986;BME280;72786;53.546;9.910;2024-01-16T06:01:15;99792.84;;;0.81;94.27
82986;BME280;72786;53.546;9.910;2024-01-16T06:03:41;99772.69;;;0.74;94.22
82986;BME280;72786;53.546;9.910;2024-01-16T06:06:10;99796.78;;;0.86;94.25
82986;BME280;72786;53.546;9.910;2024-01-16T06:08:37;99798.63;;;0.80;94.08
82986;BME280;72786;53.546;9.910;2024-01-16T06:11:03;99756.16;;;0.62;93.96
82986;BME280;72786;53.546;9.910;2024-01-16T06:13:29;99793.16;;;0.84;94.15
82986;BME280;72786;53.546;9.910;2024-01-16T06:15:58;99790.69;;;0.77;93.89
82986;BME280;72786;53.546;9.910;2024-01-16T06:18:24;99798.63;;;0.80;93.72
82986;BME280;72786;53.546;9.910;2024-01-16T06:20:51;99806.94;;;0.79;94.37
82986;BME280;72786;53.546;9.910;2024-01-16T06:23:17;99800.59;;;0.82;94.01
82986;BME280;72786;53.546;9.910;2024-01-16T06:25:45;99801.81;;;0.86;94.18
82986;BME280;72786;53.546;9.910;2024-01-16T06:28:12;99798.38;;;0.85;94.15
82986;BME280;72786;53.546;9.910;2024-01-16T06:30:38;99764.03;;;0.72;93.56
82986;BME280;72786;53.546;9.910;2024-01-16T06:33:05;99766.03;;;0.68;93.65
82986;BME280;72786;53.546;9.910;2024-01-16T06:35:31;99762.13;;;0.63;93.82
82986;BME280;72786;53.546;9.910;2024-01-16T06:37:58;99771.97;;;0.68;94.38
82986;BME280;72786;53.546;9.910;2024-01-16T06:40:24;99804.69;;;0.89;94.13
82986;BME280;72786;53.546;9.910;2024-01-16T06:42:51;99782.19;;;0.83;94.06
82986;BME280;72786;53.546;9.910;2024-01-16T06:45:17;99784.00;;;0.84;93.68
82986;BME280;72786;53.546;9.910;2024-01-16T06:47:45;99772.44;;;0.79;93.81
82986;BME280;72786;53.546;9.910;2024-01-16T06:50:15;99810.75;;;0.98;93.82
82986;BME280;72786;53.546;9.910;2024-01-16T06:52:41;99803.59;;;0.94;93.90
82986;BME280;72786;53.546;9.910;2024-01-16T06:55:08;99808.03;;;1.03;93.51
82986;BME280;72786;53.546;9.910;2024-01-16T06:57:34;99803.69;;;1.02;93.82
82986;BME280;72786;53.546;9.910;2024-01-16T07:00:00;99807.63;;;1.07;93.49
82986;BME280;72786;53.546;9.910;2024-01-16T07:02:27;99792.72;;;1.02;93.88
82986;BME280;72786;53.546;9.910;2024-01-16T07:04:54;99798.28;;;0.99;94.47
82986;BME280;72786;53.546;9.910;2024-01-16T07:07:23;99804.06;;;1.05;94.78
82986;BME280;72786;53.546;9.910;2024-01-16T07:09:50;99798.06;;;1.05;94.93
82986;BME280;72786;53.546;9.910;2024-01-16T07:12:17;99801.00;;;1.01;94.82
82986;BME280;72786;53.546;9.910;2024-01-16T07:14:43;99804.94;;;1.06;95.40
82986;BME280;72786;53.546;9.910;2024-01-16T07:17:10;99797.34;;;1.06;94.95
82986;BME280;72786;53.546;9.910;2024-01-16T07:19:36;99759.22;;;0.89;94.75
82986;BME280;72786;53.546;9.910;2024-01-16T07:22:03;99774.72;;;0.92;94.54
82986;BME280;72786;53.546;9.910;2024-01-16T07:24:29;99811.13;;;1.01;94.75
82986;BME280;72786;53.546;9.910;2024-01-16T07:26:56;99805.50;;;1.03;95.04
82986;BME280;72786;53.546;9.910;2024-01-16T07:29:22;99815.41;;;1.09;94.96
82986;BME280;72786;53.546;9.910;2024-01-16T07:31:49;99815.03;;;1.06;95.01
82986;BME280;72786;53.546;9.910;2024-01-16T07:34:15;99819.22;;;1.05;94.78
82986;BME280;72786;53.546;9.910;2024-01-16T07:36:48;99814.38;;;1.00;95.00
82986;BME280;72786;53.546;9.910;2024-01-16T07:39:14;99815.03;;;1.06;94.88
82986;BME280;72786;53.546;9.910;2024-01-16T07:41:41;99787.75;;;0.88;94.91
82986;BME280;72786;53.546;9.910;2024-01-16T07:44:07;99814.69;;;1.03;95.19
82986;BME280;72786;53.546;9.910;2024-01-16T07:46:34;99824.59;;;1.08;95.08
82986;BME280;72786;53.546;9.910;2024-01-16T07:49:00;99824.53;;;1.15;95.02
82986;BME280;72786;53.546;9.910;2024-01-16T07:51:27;99821.34;;;1.09;94.77
82986;BME280;72786;53.546;9.910;2024-01-16T07:54:05;99820.78;;;1.12;94.99
82986;BME280;72786;53.546;9.910;2024-01-16T07:56:33;99804.81;;;0.97;94.74
82986;BME280;72786;53.546;9.910;2024-01-16T07:59:00;99822.94;;;1.16;94.93
82986;BME280;72786;53.546;9.910;2024-01-16T08:01:28;99795.97;;;1.01;94.84
82986;BME280;72786;53.546;9.910;2024-01-16T08:03:57;99820.56;;;1.17;94.47
82986;BME280;72786;53.546;9.910;2024-01-16T08:06:24;99804.72;;;1.11;94.60
82986;BME280;72786;53.546;9.910;2024-01-16T08:08:50;99820.34;;;1.23;94.32
82986;BME280;72786;53.546;9.910;2024-01-16T08:11:18;99816.91;;;1.22;94.37
82986;BME280;72786;53.546;9.910;2024-01-16T08:13:45;99793.69;;;1.11;94.10
82986;BME280;72786;53.546;9.910;2024-01-16T08:16:11;99798.75;;;1.11;94.15
82986;BME280;72786;53.546;9.910;2024-01-16T08:18:37;99799.47;;;1.10;94.05
82986;BME280;72786;53.546;9.910;2024-01-16T08:21:04;99799.53;;;1.03;93.94
82986;BME280;72786;53.546;9.910;2024-01-16T08:23:31;99839.44;;;1.28;93.77
82986;BME280;72786;53.546;9.910;2024-01-16T08:25:57;99816.75;;;1.21;93.74
82986;BME280;72786;53.546;9.910;2024-01-16T08:28:24;99831.81;;;1.35;93.53
82986;BME280;72786;53.546;9.910;2024-01-16T08:30:51;99805.72;;;1.20;93.40
82986;BME280;72786;53.546;9.910;2024-01-16T08:33:17;99835.41;;;1.37;93.45
82986;BME280;72786;53.546;9.910;2024-01-16T08:35:48;99831.38;;;1.39;93.58
82986;BME280;72786;53.546;9.910;2024-01-16T08:38:14;99844.03;;;1.39;93.77
82986;BME280;72786;53.546;9.910;2024-01-16T08:40:41;99846.56;;;1.39;93.47
82986;BME280;72786;53.546;9.910;2024-01-16T08:43:07;99846.75;;;1.40;93.74
82986;BME280;72786;53.546;9.910;2024-01-16T08:45:34;99842.94;;;1.44;93.77
82986;BME280;72786;53.546;9.910;2024-01-16T08:48:00;99842.25;;;1.38;93.94
82986;BME280;72786;53.546;9.910;2024-01-16T08:50:28;99837.53;;;1.41;93.94
82986;BME280;72786;53.546;9.910;2024-01-16T08:52:55;99829.94;;;1.41;93.95
82986;BME280;72786;53.546;9.910;2024-01-16T08:55:21;99836.75;;;1.48;93.46
82986;BME280;72786;53.546;9.910;2024-01-16T08:57:47;99840.91;;;1.48;93.52
82986;BME280;72786;53.546;9.910;2024-01-16T09:00:14;99799.34;;;1.31;93.13
82986;BME280;72786;53.546;9.910;2024-01-16T09:02:41;99818.09;;;1.33;92.89
82986;BME280;72786;53.546;9.910;2024-01-16T09:05:08;99811.56;;;1.35;92.99
82986;BME280;72786;53.546;9.910;2024-01-16T09:07:34;99833.81;;;1.52;92.87
82986;BME280;72786;53.546;9.910;2024-01-16T09:10:01;99854.38;;;1.55;92.72
82986;BME280;72786;53.546;9.910;2024-01-16T09:12:27;99850.78;;;1.53;92.70
82986;BME280;72786;53.546;9.910;2024-01-16T09:14:54;99853.72;;;1.49;92.55
82986;BME280;72786;53.546;9.910;2024-01-16T09:17:20;99849.69;;;1.58;92.50
82986;BME280;72786;53.546;9.910;2024-01-16T09:19:47;99846.94;;;1.57;92.10
82986;BME280;72786;53.546;9.910;2024-01-16T09:22:13;99853.09;;;1.59;92.34
82986;BME280;72786;53.546;9.910;2024-01-16T09:24:42;99848.53;;;1.63;91.91
82986;BME280;72786;53.546;9.910;2024-01-16T09:27:09;99846.91;;;1.64;91.98
82986;BME280;72786;53.546;9.910;2024-01-16T09:29:36;99853.09;;;1.59;91.74
82986;BME280;72786;53.546;9.910;2024-01-16T09:32:03;99860.09;;;1.61;91.78
82986;BME280;72786;53.546;9.910;2024-01-16T09:34:29;99857.72;;;1.63;91.57
82986;BME280;72786;53.546;9.910;2024-01-16T09:36:56;99870.09;;;1.75;91.76
82986;BME280;72786;53.546;9.910;2024-01-16T09:39:27;99868.88;;;1.72;91.48
82986;BME280;72786;53.546;9.910;2024-01-16T09:41:54;99832.25;;;1.46;91.47
82986;BME280;72786;53.546;9.910;2024-01-16T09:44:21;99882.50;;;1.65;91.55
82986;BME280;72786;53.546;9.910;2024-01-16T09:46:47;99868.59;;;1.62;91.42
82986;BME280;72786;53.546;9.910;2024-01-16T09:49:17;99874.16;;;1.66;91.68
82986;BME280;72786;53.546;9.910;2024-01-16T09:51:44;99811.56;;;1.35;91.14
82986;BME280;72786;53.546;9.910;2024-01-16T09:54:10;99872.03;;;1.62;91.77
82986;BME280;72786;53.546;9.910;2024-01-16T09:56:43;99873.03;;;1.71;92.37
82986;BME280;72786;53.546;9.910;2024-01-16T09:59:15;99875.06;;;1.67;92.11
82986;BME280;72786;53.546;9.910;2024-01-16T10:01:43;99872.69;;;1.68;92.05
82986;BME280;72786;53.546;9.910;2024-01-16T10:04:11;99873.03;;;1.71;91.73
82986;BME280;72786;53.546;9.910;2024-01-16T10:06:38;99870.16;;;1.68;91.85
82986;BME280;72786;53.546;9.910;2024-01-16T10:09:05;99853.09;;;1.59;91.95
82986;BME280;72786;53.546;9.910;2024-01-16T10:11:33;99889.19;;;1.80;92.26
82986;BME280;72786;53.546;9.910;2024-01-16T10:14:00;99878.97;;;1.72;91.80
82986;BME280;72786;53.546;9.910;2024-01-16T10:19:23;99887.44;;;1.79;91.90
82986;BME280;72786;53.546;9.910;2024-01-16T10:22:07;99853.59;;;1.63;91.90
82986;BME280;72786;53.546;9.910;2024-01-16T10:24:34;99882.13;;;1.85;91.89
82986;BME280;72786;53.546;9.910;2024-01-16T10:27:02;99861.13;;;1.70;91.85
82986;BME280;72786;53.546;9.910;2024-01-16T10:29:32;99874.72;;;1.86;92.30
82986;BME280;72786;53.546;9.910;2024-01-16T10:32:27;99889.13;;;1.87;91.91
82986;BME280;72786;53.546;9.910;2024-01-16T10:35:11;99899.00;;;1.77;91.98
82986;BME280;72786;53.546;9.910;2024-01-16T10:37:52;99889.19;;;1.80;92.10
82986;BME280;72786;53.546;9.910;2024-01-16T10:40:22;99896.13;;;1.74;92.43
82986;BME280;72786;53.546;9.910;2024-01-16T10:43:01;99889.78;;;1.78;92.56
82986;BME280;72786;53.546;9.910;2024-01-16T10:45:27;99853.59;;;1.63;92.46
82986;BME280;72786;53.546;9.910;2024-01-16T10:48:04;99862.66;;;1.77;92.76
82986;BME280;72786;53.546;9.910;2024-01-16T10:50:32;99885.34;;;1.91;92.26
82986;BME280;72786;53.546;9.910;2024-01-16T10:53:03;99897.44;;;1.93;92.47
82986;BME280;72786;53.546;9.910;2024-01-16T10:55:31;99896.91;;;1.89;92.46
82986;BME280;72786;53.546;9.910;2024-01-16T10:57:58;99869.53;;;1.78;92.36
82986;BME280;72786;53.546;9.910;2024-01-16T11:00:27;99886.09;;;2.05;92.40
82986;BME280;72786;53.546;9.910;2024-01-16T11:03:01;99891.31;;;2.07;92.35
82986;BME280;72786;53.546;9.910;2024-01-16T11:05:33;99891.66;;;1.87;92.39
82986;BME280;72786;53.546;9.910;2024-01-16T11:08:02;99898.81;;;1.98;92.58
82986;BME280;72786;53.546;9.910;2024-01-16T11:10:32;99901.00;;;1.95;92.15
82986;BME280;72786;53.546;9.910;2024-01-16T11:13:04;99907.13;;;1.97;92.27
82986;BME280;72786;53.546;9.910;2024-01-16T11:15:31;99898.09;;;1.99;92.42
82986;BME280;72786;53.546;9.910;2024-01-16T11:17:59;99872.69;;;1.91;92.23
82986;BME280;72786;53.546;9.910;2024-01-16T11:20:27;99896.56;;;2.08;92.21
82986;BME280;72786;53.546;9.910;2024-01-16T11:23:14;99885.94;;;2.04;92.16
82986;BME280;72786;53.546;9.910;2024-01-16T11:25:41;99895.06;;;2.10;92.44
82986;BME280;72786;53.546;9.910;2024-01-16T11:30:35;99882.19;;;2.00;92.28
82986;BME280;72786;53.546;9.910;2024-01-16T11:33:02;99877.72;;;2.13;91.86
82986;BME280;72786;53.546;9.910;2024-01-16T11:35:35;99864.31;;;2.14;91.49
82986;BME280;72786;53.546;9.910;2024-01-16T11:38:16;99885.47;;;2.30;91.61
82986;BME280;72786;53.546;9.910;2024-01-16T11:40:42;99887.34;;;2.24;91.64
82986;BME280;72786;53.546;9.910;2024-01-16T11:45:58;99911.28;;;2.19;91.90
82986;BME280;72786;53.546;9.910;2024-01-16T11:48:25;99888.97;;;2.08;92.10
82986;BME280;72786;53.546;9.910;2024-01-16T11:50:53;99897.81;;;2.12;92.32
82986;BME280;72786;53.546;9.910;2024-01-16T11:53:37;99901.06;;;2.11;92.43
82986;BME280;72786;53.546;9.910;2024-01-16T12:02:19;99895.94;;;2.33;91.58
82986;BME280;72786;53.546;9.910;2024-01-16T12:04:56;99894.88;;;2.31;91.38
82986;BME280;72786;53.546;9.910;2024-01-16T12:07:23;99891.88;;;2.42;91.10
82986;BME280;72786;53.546;9.910;2024-01-16T12:09:49;99886.38;;;2.46;91.18
82986;BME280;72786;53.546;9.910;2024-01-16T12:12:16;99900.34;;;2.42;91.10
82986;BME280;72786;53.546;9.910;2024-01-16T12:14:51;99895.84;;;2.40;91.41
82986;BME280;72786;53.546;9.910;2024-01-16T12:17:19;99894.63;;;2.36;91.45
82986;BME280;72786;53.546;9.910;2024-01-16T12:19:46;99862.81;;;2.16;91.51
82986;BME280;72786;53.546;9.910;2024-01-16T12:22:13;99888.41;;;2.26;91.87
82986;BME280;72786;53.546;9.910;2024-01-16T12:24:40;99871.50;;;2.18;91.50
82986;BME280;72786;53.546;9.910;2024-01-16T12:27:07;99890.72;;;2.31;91.75
82986;BME280;72786;53.546;9.910;2024-01-16T12:29:35;99896.66;;;2.32;91.72
82986;BME280;72786;53.546;9.910;2024-01-16T12:32:09;99906.47;;;2.29;91.49
82986;BME280;72786;53.546;9.910;2024-01-16T12:34:43;99876.41;;;2.17;91.46
82986;BME280;72786;53.546;9.910;2024-01-16T12:37:12;99896.34;;;2.29;91.56
82986;BME280;72786;53.546;9.910;2024-01-16T12:39:42;99897.59;;;2.32;91.31
82986;BME280;72786;53.546;9.910;2024-01-16T12:42:10;99897.31;;;2.38;91.90
82986;BME280;72786;53.546;9.910;2024-01-16T12:44:38;99898.81;;;2.36;90.87
82986;BME280;72786;53.546;9.910;2024-01-16T12:47:04;99899.63;;;2.28;91.24
82986;BME280;72786;53.546;9.910;2024-01-16T12:49:31;99888.69;;;2.36;91.67
82986;BME280;72786;53.546;9.910;2024-01-16T12:52:19;99889.50;;;2.28;90.95
82986;BME280;72786;53.546;9.910;2024-01-16T12:54:47;99892.03;;;2.28;91.54
82986;BME280;72786;53.546;9.910;2024-01-16T12:57:19;99891.28;;;2.29;91.13
82986;BME280;72786;53.546;9.910;2024-01-16T12:59:48;99857.22;;;2.19;91.61
82986;BME280;72786;53.546;9.910;2024-01-16T13:02:22;99882.19;;;2.31;91.28
82986;BME280;72786;53.546;9.910;2024-01-16T13:04:56;99876.75;;;2.35;91.41
82986;BME280;72786;53.546;9.910;2024-01-16T13:07:24;99876.34;;;2.39;91.51
82986;BME280;72786;53.546;9.910;2024-01-16T13:10:06;99876.09;;;2.29;91.73
82986;BME280;72786;53.546;9.910;2024-01-16T13:12:32;99878.22;;;2.33;91.65
82986;BME280;72786;53.546;9.910;2024-01-16T13:14:59;99853.78;;;2.18;92.28
82986;BME280;72786;53.546;9.910;2024-01-16T13:17:34;99840.63;;;2.14;92.12
82986;BME280;72786;53.546;9.910;2024-01-16T13:20:01;99868.50;;;2.29;91.70
82986;BME280;72786;53.546;9.910;2024-01-16T13:22:29;99870.69;;;2.26;91.79
82986;BME280;72786;53.546;9.910;2024-01-16T13:25:10;99872.50;;;2.27;92.20
82986;BME280;72786;53.546;9.910;2024-01-16T13:27:36;99860.22;;;2.23;92.42